Princeton, Oregon
Current Conditions -  °F | °C
As of 1:53 AM on Saturday 22 Nov 2014 (Local Time) from KBNO Reporting Station
Overcast Overcast  
Wind Chill: 34°   Ceiling: 4000
Heat Index: 39°   Visibility: 10mi
Dew Point: 35°   Wind: 7mph
Humidity: 86%   Direction: 200°SSW
Pressure: 29.68"   Gusts: NA
Location:  43.25°N, 118.58°W
Report Text: KBNO 220953Z AUTO 20006KT 10SM OVC040 04/02 A2968 RMK AO2 RAB23E33 SLP055 P0000 T00390017
Loading
Personal Weather Stations






























Interactive Weather Map New forecast layout! Learn more

10-Day Weather Forecast

Advertisements
Track Severe Weather on mobile